Amherst, NY

5:58 PM EST on November 27, 2014 (GMT -0500)
Transit and Renaissance Williamsville, NY | Change Station
CLOSE
Current Station
Personal Weather Station
Location: Buffalo, NY
Elevation: 610 ft
Nearby Weather Stations
Active Advisory: Special Statement

Elev 610 ft 42.99 °N, 78.70 °W | Updated 24 seconds ago

Overcast
Overcast
32.6 °F
Feels Like 33 °F
N
0.0
Wind Variable Wind from West
Gusts 0.0 mph

Today
High -- | Low -- °F
--% Chance of Precip.
Yesterday
High -- | Low -- °F
Precip. -- in
7:21 AM 4:42 PM
Waxing Crescent, 33% visible
Pressure 30.09 in
Visibility 10.0 miles
Clouds Few 1900 ft
Few 3500 ft
Overcast 7500 ft
Windchill 33 °F
Dew Point 27 °F
Humidity 80%
Rainfall 0.00 in
Snow Depth Not available.
UV 0 out of 12
Pollen .10 out of 12
Air Quality Not available.
Flu Activity Not available.
METAR KBUF 272254Z 27005KT 10SM FEW019 FEW035 OVC075 00/M03 A3006 RMK AO2 SNB08E24 SLP187 SHSN DSNT NW P0000 T00001033

More Conditions Fewer Conditions

Pressure 30.09 in
Visibility 10.0 miles
Clouds Few 1900 ft
Few 3500 ft
Overcast 7500 ft
Windchill 33 °F
Dew Point 27 °F
Humidity 80%
Rainfall 0.00 in
Snow Depth Not available.
UV 0 out of 12
Pollen .10 out of 12
Air Quality Not available.
Flu Activity Not available.
METAR KBUF 272254Z 27005KT 10SM FEW019 FEW035 OVC075 00/M03 A3006 RMK AO2 SNB08E24 SLP187 SHSN DSNT NW P0000 T00001033

More Conditions Fewer Conditions

10-Day Weather Forecast

Almanac

Astronomy

Nov. 27, 2014 Rise Set
Actual Time
Civil Twilight
Nautical Twilight
Astronomical Twilight
Moon
Length of Visible Light
Length of Day
Tomorrow will be .
, % of the Moon is Illuminated

Today's Extremes

State Highs State Lows

Community

WunderPhotos

Upload Photos

1,774,125 photos uploaded!

WunderBlogs® & News

Nearby

Air Quality

  Air Quality AQ Index Pollutant
Not available.

Snow Depth

Station Depth Elevation

Earthquake Activity

City Distance Mag. Time & Date
Minimum magnitude displayed is 2.5.

Coastal Water Temperatures

Place Temperature

Nearby Weather Stations